Time,TemperatureF,DewpointF,PressureIn,WindDirection,WindDirectionDegrees,WindSpeedMPH,WindSpeedGustMPH,Humidity,HourlyPrecipIn,Conditions,Clouds,dailyrainin,SolarRadiationWatts/m^2,SoftwareType,DateUTC
2013-06-05 00:02:00,66.0,62.0,-100.00,WNW,285,1.0,4.0,88,0.00,,,0.00,0.000000,,2013-06-05 04:02:00,
2013-06-05 00:33:00,65.0,63.0,-100.00,East,82,1.0,2.0,92,0.00,,,0.00,0.000000,,2013-06-05 04:33:00,
2013-06-05 00:42:00,65.0,63.0,-100.00,East,82,1.0,2.0,92,0.00,,,0.00,0.000000,,2013-06-05 04:42:00,
2013-06-05 00:53:00,65.0,63.0,-100.00,East,82,1.0,2.0,92,0.00,,,0.00,0.000000,,2013-06-05 04:53:00,
2013-06-05 01:02:00,65.0,63.0,-100.00,East,82,1.0,2.0,92,0.00,,,0.00,0.000000,,2013-06-05 05:02:00,
2013-06-05 01:32:00,64.0,63.0,-100.00,East,80,1.0,5.0,97,0.00,,,0.00,0.000000,,2013-06-05 05:32:00,
2013-06-05 01:42:00,64.0,63.0,-100.00,East,80,1.0,5.0,97,0.00,,,0.00,0.000000,,2013-06-05 05:42:00,
2013-06-05 01:53:00,64.0,63.0,-100.00,East,80,1.0,5.0,97,0.00,,,0.00,0.000000,,2013-06-05 05:53:00,
2013-06-05 02:02:00,64.0,63.0,-100.00,East,80,1.0,5.0,97,0.00,,,0.00,0.000000,,2013-06-05 06:02:00,
2013-06-05 02:32:00,63.0,62.0,-100.00,NNW,331,1.0,2.0,98,0.00,,,0.00,0.000000,,2013-06-05 06:32:00,
2013-06-05 02:42:00,63.0,62.0,-100.00,NNW,331,1.0,2.0,98,0.00,,,0.00,0.000000,,2013-06-05 06:42:00,
2013-06-05 02:52:00,63.0,62.0,-100.00,NNW,331,1.0,2.0,98,0.00,,,0.00,0.000000,,2013-06-05 06:52:00,
2013-06-05 03:02:00,63.0,62.0,-100.00,NNW,331,1.0,2.0,98,0.00,,,0.00,0.000000,,2013-06-05 07:02:00,
2013-06-05 03:32:00,63.0,63.0,-100.00,East,92,1.0,4.0,99,0.00,,,0.00,0.000000,,2013-06-05 07:32:00,
2013-06-05 03:42:00,63.0,63.0,-100.00,East,92,1.0,4.0,99,0.00,,,0.00,0.000000,,2013-06-05 07:42:00,
2013-06-05 03:52:00,63.0,63.0,-100.00,East,92,1.0,4.0,99,0.00,,,0.00,0.000000,,2013-06-05 07:52:00,
2013-06-05 04:02:00,63.0,63.0,-100.00,East,92,1.0,4.0,99,0.00,,,0.00,0.000000,,2013-06-05 08:02:00,
2013-06-05 04:32:00,62.0,62.0,-100.00,NNW,338,2.0,2.0,99,0.00,,,0.00,0.000000,,2013-06-05 08:32:00,
2013-06-05 04:42:00,62.0,62.0,-100.00,NNW,338,2.0,2.0,99,0.00,,,0.00,0.000000,,2013-06-05 08:42:00,
2013-06-05 04:52:00,62.0,62.0,-100.00,NNW,338,2.0,2.0,99,0.00,,,0.00,0.000000,,2013-06-05 08:52:00,
2013-06-05 05:02:00,62.0,62.0,-100.00,NNW,338,2.0,2.0,99,0.00,,,0.00,0.000000,,2013-06-05 09:02:00,
2013-06-05 05:33:00,63.0,63.0,-100.00,SW,214,1.0,3.0,99,0.00,,,0.00,0.000000,,2013-06-05 09:33:00,
2013-06-05 05:43:00,63.0,63.0,-100.00,SW,214,1.0,3.0,99,0.00,,,0.00,0.000000,,2013-06-05 09:43:00,
2013-06-05 05:53:00,63.0,63.0,-100.00,SW,214,1.0,3.0,99,0.00,,,0.00,0.000000,,2013-06-05 09:53:00,
2013-06-05 06:03:00,63.0,63.0,-100.00,SW,214,1.0,3.0,99,0.00,,,0.00,0.000000,,2013-06-05 10:03:00,
2013-06-05 06:33:00,65.0,65.0,-100.00,ESE,116,3.0,4.0,100,0.00,,,0.00,0.000000,,2013-06-05 10:33:00,
2013-06-05 06:43:00,65.0,65.0,-100.00,ESE,116,3.0,4.0,100,0.00,,,0.00,0.000000,,2013-06-05 10:43:00,
2013-06-05 06:53:00,65.0,65.0,-100.00,ESE,116,3.0,4.0,100,0.00,,,0.00,0.000000,,2013-06-05 10:53:00,
2013-06-05 07:02:00,65.0,65.0,-100.00,ESE,116,3.0,4.0,100,0.00,,,0.00,0.000000,,2013-06-05 11:02:00,
2013-06-05 07:33:00,64.0,63.0,-100.00,SE,132,2.0,4.0,97,0.00,,,0.00,19.000000,,2013-06-05 11:33:00,
2013-06-05 07:42:00,64.0,63.0,-100.00,SE,132,2.0,4.0,97,0.00,,,0.00,19.000000,,2013-06-05 11:42:00,
2013-06-05 07:52:00,64.0,63.0,-100.00,SE,132,2.0,4.0,97,0.00,,,0.00,19.000000,,2013-06-05 11:52:00,
2013-06-05 08:02:00,64.0,63.0,-100.00,SE,132,2.0,4.0,97,0.00,,,0.00,19.000000,,2013-06-05 12:02:00,
2013-06-05 08:32:00,67.0,65.0,-100.00,ESE,104,2.0,6.0,94,0.00,,,0.00,99.000000,,2013-06-05 12:32:00,
2013-06-05 08:44:00,67.0,65.0,-100.00,ESE,104,2.0,6.0,94,0.00,,,0.00,99.000000,,2013-06-05 12:44:00,
2013-06-05 08:52:00,67.0,65.0,-100.00,ESE,104,2.0,6.0,94,0.00,,,0.00,99.000000,,2013-06-05 12:52:00,
2013-06-05 09:02:00,67.0,65.0,-100.00,ESE,104,2.0,6.0,94,0.00,,,0.00,99.000000,,2013-06-05 13:02:00,
2013-06-05 09:33:00,73.0,68.0,-100.00,SE,125,3.0,5.0,85,0.00,,,0.00,306.000000,,2013-06-05 13:33:00,
2013-06-05 09:42:00,73.0,68.0,-100.00,SE,125,3.0,5.0,85,0.00,,,0.00,306.000000,,2013-06-05 13:42:00,
2013-06-05 09:53:00,73.0,68.0,-100.00,SE,125,3.0,5.0,85,0.00,,,0.00,306.000000,,2013-06-05 13:53:00,
2013-06-05 10:02:00,73.0,68.0,-100.00,SE,125,3.0,5.0,85,0.00,,,0.00,306.000000,,2013-06-05 14:02:00,
2013-06-05 10:32:00,75.0,67.0,-100.00,SSE,154,4.0,6.0,76,0.00,,,0.00,413.000000,,2013-06-05 14:32:00,
2013-06-05 10:42:00,75.0,67.0,-100.00,SSE,154,4.0,6.0,76,0.00,,,0.00,413.000000,,2013-06-05 14:42:00,
2013-06-05 10:52:00,75.0,67.0,-100.00,SSE,154,4.0,6.0,76,0.00,,,0.00,413.000000,,2013-06-05 14:52:00,
2013-06-05 11:03:00,75.0,67.0,-100.00,SSE,154,4.0,6.0,76,0.00,,,0.00,413.000000,,2013-06-05 15:03:00,
2013-06-05 11:33:00,77.0,67.0,-100.00,South,175,6.0,10.0,71,0.00,,,0.00,523.000000,,2013-06-05 15:33:00,
2013-06-05 11:43:00,77.0,67.0,-100.00,South,175,6.0,10.0,71,0.00,,,0.00,523.000000,,2013-06-05 15:43:00,
2013-06-05 11:53:00,77.0,67.0,-100.00,South,175,6.0,10.0,71,0.00,,,0.00,523.000000,,2013-06-05 15:53:00,
2013-06-05 12:03:00,77.0,67.0,-100.00,South,175,6.0,10.0,71,0.00,,,0.00,523.000000,,2013-06-05 16:03:00,
2013-06-05 12:32:00,80.0,67.0,-100.00,South,186,9.0,15.0,64,0.00,,,0.00,779.000000,,2013-06-05 16:32:00,
2013-06-05 12:42:00,80.0,67.0,-100.00,South,186,9.0,15.0,64,0.00,,,0.00,779.000000,,2013-06-05 16:42:00,
2013-06-05 12:54:00,80.0,67.0,-100.00,South,186,9.0,15.0,64,0.00,,,0.00,779.000000,,2013-06-05 16:54:00,
2013-06-05 13:02:00,80.0,67.0,-100.00,South,186,9.0,15.0,64,0.00,,,0.00,779.000000,,2013-06-05 17:02:00,
2013-06-05 13:33:00,81.0,66.0,-100.00,SSE,158,7.0,17.0,60,0.00,,,0.00,1027.000000,,2013-06-05 17:33:00,
2013-06-05 13:43:00,81.0,66.0,-100.00,SSE,158,7.0,17.0,60,0.00,,,0.00,1027.000000,,2013-06-05 17:43:00,
2013-06-05 13:52:00,81.0,66.0,-100.00,SSE,158,7.0,17.0,60,0.00,,,0.00,1027.000000,,2013-06-05 17:52:00,
2013-06-05 14:02:00,81.0,66.0,-100.00,SSE,158,7.0,17.0,60,0.00,,,0.00,1027.000000,,2013-06-05 18:02:00,
2013-06-05 14:32:00,81.0,64.0,-100.00,South,179,8.0,17.0,57,0.00,,,0.00,1000.000000,,2013-06-05 18:32:00,
2013-06-05 14:42:00,81.0,64.0,-100.00,South,179,8.0,17.0,57,0.00,,,0.00,1000.000000,,2013-06-05 18:42:00,
2013-06-05 14:52:00,81.0,64.0,-100.00,South,179,8.0,17.0,57,0.00,,,0.00,1000.000000,,2013-06-05 18:52:00,
2013-06-05 15:03:00,81.0,64.0,-100.00,South,179,8.0,17.0,57,0.00,,,0.00,1000.000000,,2013-06-05 19:03:00,
2013-06-05 15:32:00,82.0,65.0,-100.00,SSE,159,8.0,16.0,56,0.00,,,0.00,952.000000,,2013-06-05 19:32:00,
2013-06-05 15:42:00,82.0,65.0,-100.00,SSE,159,8.0,16.0,56,0.00,,,0.00,952.000000,,2013-06-05 19:42:00,
2013-06-05 15:53:00,82.0,65.0,-100.00,SSE,159,8.0,16.0,56,0.00,,,0.00,952.000000,,2013-06-05 19:53:00,
2013-06-05 16:03:00,82.0,65.0,-100.00,SSE,159,8.0,16.0,56,0.00,,,0.00,952.000000,,2013-06-05 20:03:00,
2013-06-05 16:32:00,82.0,65.0,-100.00,South,175,8.0,14.0,57,0.00,,,0.00,735.000000,,2013-06-05 20:32:00,
2013-06-05 16:42:00,82.0,65.0,-100.00,South,175,8.0,14.0,57,0.00,,,0.00,735.000000,,2013-06-05 20:42:00,
2013-06-05 16:52:00,82.0,65.0,-100.00,South,175,8.0,14.0,57,0.00,,,0.00,735.000000,,2013-06-05 20:52:00,
2013-06-05 17:02:00,82.0,65.0,-100.00,South,175,8.0,14.0,57,0.00,,,0.00,735.000000,,2013-06-05 21:02:00,
2013-06-05 17:33:00,71.0,58.0,-100.00,NW,314,14.0,24.0,63,0.00,,,0.00,235.000000,,2013-06-05 21:33:00,
2013-06-05 18:33:00,66.0,61.0,-100.00,NNW,340,10.0,19.0,83,-99.99,,,0.00,58.000000,,2013-06-05 22:33:00,
2013-06-05 19:32:00,64.0,63.0,-100.00,ESE,107,4.0,14.0,97,-99.99,,,1.15,3.000000,,2013-06-05 23:32:00,
2013-06-05 19:42:00,64.0,63.0,-100.00,ESE,107,4.0,14.0,97,-99.99,,,1.15,3.000000,,2013-06-05 23:42:00,
2013-06-05 19:53:00,64.0,63.0,-100.00,ESE,107,4.0,14.0,97,-99.99,,,1.15,3.000000,,2013-06-05 23:53:00,
2013-06-05 20:02:00,64.0,63.0,-100.00,ESE,107,4.0,14.0,97,-99.99,,,1.15,3.000000,,2013-06-06 00:02:00,
2013-06-05 20:32:00,64.0,64.0,-100.00,SSE,156,2.0,6.0,99,0.09,,,1.24,2.000000,,2013-06-06 00:32:00,
2013-06-05 20:43:00,64.0,64.0,-100.00,SSE,156,2.0,6.0,99,0.09,,,1.24,2.000000,,2013-06-06 00:43:00,
2013-06-05 20:52:00,64.0,64.0,-100.00,SSE,156,2.0,6.0,99,0.09,,,1.24,2.000000,,2013-06-06 00:52:00,
2013-06-05 21:02:00,64.0,64.0,-100.00,SSE,156,2.0,6.0,99,0.09,,,1.24,2.000000,,2013-06-06 01:02:00,
2013-06-05 21:32:00,64.0,64.0,-100.00,ESE,117,3.0,6.0,99,0.13,,,1.37,1.000000,,2013-06-06 01:32:00,
2013-06-05 21:42:00,64.0,64.0,-100.00,ESE,117,3.0,6.0,99,0.13,,,1.37,1.000000,,2013-06-06 01:42:00,
2013-06-05 21:53:00,64.0,64.0,-100.00,ESE,117,3.0,6.0,99,0.13,,,1.37,1.000000,,2013-06-06 01:53:00,
2013-06-05 22:02:00,64.0,64.0,-100.00,ESE,117,3.0,6.0,99,0.13,,,1.37,1.000000,,2013-06-06 02:02:00,
2013-06-05 22:32:00,64.0,63.0,-100.00,SE,133,2.0,9.0,98,0.01,,,1.38,0.000000,,2013-06-06 02:32:00,
2013-06-05 22:42:00,64.0,63.0,-100.00,SE,133,2.0,9.0,98,0.01,,,1.38,0.000000,,2013-06-06 02:42:00,
2013-06-05 22:52:00,64.0,63.0,-100.00,SE,133,2.0,9.0,98,0.01,,,1.38,0.000000,,2013-06-06 02:52:00,
2013-06-05 23:02:00,64.0,63.0,-100.00,SE,133,2.0,9.0,98,0.01,,,1.38,0.000000,,2013-06-06 03:02:00,
2013-06-05 23:33:00,63.0,63.0,-100.00,ESE,110,2.0,5.0,99,0.00,,,1.38,0.000000,,2013-06-06 03:33:00,
2013-06-05 23:43:00,63.0,63.0,-100.00,ESE,110,2.0,5.0,99,0.00,,,1.38,0.000000,,2013-06-06 03:43:00,
2013-06-05 23:53:00,63.0,63.0,-100.00,ESE,110,2.0,5.0,99,0.00,,,1.38,0.000000,,2013-06-06 03:53:00,